Leon, Iowa
Current Conditions -  °F | °C
As of 4:53 AM on Friday 31 Oct 2014 (Local Time) from KLWD Reporting Station
Broken Clouds Broken Clouds  
Wind Chill: 24°   Ceiling: 3300
Heat Index: 35°   Visibility: 10mi
Dew Point: 24°   Wind: 18mph
Humidity: 64%   Direction: 360°N
Pressure: 30.35"   Gusts: 24mph
Location:  40.74°N, 93.75°W
Report Text: KLWD 310953Z AUTO 36016G21KT 10SM BKN033 02/M04 A3035 RMK AO2 PK WND 01029/0928 SNB0854E47 SLP282 P0000 T00171044
Loading
Personal Weather Stations






























Interactive Weather Map
Tropical Storm Tracking
New forecast layout! Learn more

10-Day Weather Forecast

Advertisements
Track Severe Weather on mobile